Gerd Maersk — OYGM2 — position and weather

sailwx.info

Track history (hours):
 
Tides and Currents Weather Stations Pressure Air Temp Water Temp Dewpoint Dewpoint Depression Visibility Wind Speed Wind Dir Waves Ship Positions

Gerd Maersk

Last reported at 2017-Dec-03 05:56 UTC. Time now 2017-Dec-14 10:20 UTC.
Position N 30°40' E 032°20'.
Warning: this ship's position is 11 days out of date.

Length 367 m; draft 15.5 m.

Type: Ship (hazmat cat A). MMSI: 220415000.

Date/timePositionNaut miles runAvg speedWind from/ knotsBaromVisibWave heightAir tempDewpointWater temp
2017-Dec-03 05:56N 30°40' E 032°20'3 8.0
2017-Dec-03 05:30N 30°44' E 032°20'15 8.3
2017-Dec-03 03:40N 30°59' E 032°19'1 8.5
2017-Dec-03 03:30N 31°00' E 032°19'12 1.8
2017-Dec-02 20:39N 31°12' E 032°21'  
2017-Nov-29 16:51N 37°34' E 016°02'3018.3
2017-Nov-29 15:12N 37°53' E 015°31'616.7
2017-Nov-29 14:51N 37°59' E 015°31'617.4
2017-Nov-29 14:30N 38°04' E 015°33'1712.7
2017-Nov-29 13:09N 38°20' E 015°43'210.7
2017-Nov-29 13:01N 38°21' E 015°44'714.5
2017-Nov-29 12:30N 38°26' E 015°51'3 5.2
2017-Nov-29 12:00N 38°27' E 015°54'0 0.0
2017-Nov-28 05:20N 38°27' E 015°54'13 5.4
2017-Nov-28 02:57N 38°18' E 015°42'612.6
2017-Nov-28 02:29N 38°14' E 015°37'5 9.8
2017-Nov-28 02:01N 38°09' E 015°37'5 8.4
2017-Nov-28 01:28N 38°05' E 015°35'4 7.4
2017-Nov-28 00:53N 38°00' E 015°36'512.4
2017-Nov-28 00:28N 37°55' E 015°37'917.6
2017-Nov-27 23:57N 37°51' E 015°47'39714.4
2017-Nov-26 20:17N 44°22' E 014°14'518.8
2017-Nov-26 20:00N 44°27' E 014°11'918.4
2017-Nov-26 19:30N 44°36' E 014°08'1019.0
2017-Nov-26 19:00N 44°45' E 014°09'2919.1
2017-Nov-26 17:29N 45°13' E 014°19'815.4
2017-Nov-26 17:00N 45°18' E 014°27'1 0.0
2017-Nov-25 03:43N 45°19' E 014°26'2 7.8
2017-Nov-25 03:26N 45°18' E 014°24'3 6.3
2017-Nov-25 02:58N 45°16' E 014°21'1910.7
2017-Nov-25 01:11N 44°57' E 014°13'211.8
2017-Nov-25 01:01N 44°55' E 014°12'611.6
2017-Nov-25 00:30N 44°50' E 014°08'611.7
2017-Nov-25 00:01N 44°46' E 014°03'611.2
2017-Nov-24 23:31N 44°42' E 013°57'611.5
2017-Nov-24 23:00N 44°43' E 013°49'611.7
2017-Nov-24 22:30N 44°46' E 013°42'611.7
2017-Nov-24 22:01N 44°51' E 013°37'611.8
2017-Nov-24 21:31N 44°55' E 013°31'611.7
2017-Nov-24 21:00N 44°59' E 013°25'611.5
2017-Nov-24 20:31N 45°02' E 013°18'611.6
2017-Nov-24 20:01N 45°04' E 013°10'611.0
2017-Nov-24 19:30N 45°08' E 013°06'611.7
2017-Nov-24 19:01N 45°14' E 013°03'611.7
2017-Nov-24 18:30N 45°19' E 013°01'4 7.6
2017-Nov-24 18:01N 45°23' E 013°01'0 0.4
2017-Nov-24 17:30N 45°23' E 013°02'0 0.4
2017-Nov-24 17:00N 45°24' E 013°02'1 1.2
2017-Nov-24 16:31N 45°24' E 013°02'1 2.0
2017-Nov-24 16:00N 45°25' E 013°02'3 5.1
2017-Nov-24 15:30N 45°28' E 013°03'510.9
2017-Nov-24 15:01N 45°31' E 013°09'612.0
2017-Nov-24 14:31N 45°33' E 013°17'611.8
2017-Nov-24 14:01N 45°35' E 013°25'611.8
2017-Nov-24 13:31N 45°37' E 013°33'611.3
2017-Nov-24 13:00N 45°39' E 013°40'4 8.0
2017-Nov-24 12:31N 45°38' E 013°45'0 0.7
2017-Nov-24 11:56N 45°38' E 013°46'0 0.0
2017-Nov-24 11:26N 45°38' E 013°46'0 0.0
2017-Nov-24 10:59N 45°38' E 013°46'0 0.0
2017-Nov-24 10:29N 45°38' E 013°46'0 0.0
2017-Nov-24 09:59N 45°38' E 013°46'0 0.0
2017-Nov-24 09:14N 45°38' E 013°46'0 0.0
2017-Nov-24 08:59N 45°38' E 013°46'0 0.0
2017-Nov-24 08:26N 45°38' E 013°46'0 0.0
2017-Nov-24 07:56N 45°38' E 013°46'0 0.0
2017-Nov-24 07:29N 45°38' E 013°46'0 0.0
2017-Nov-24 06:56N 45°38' E 013°46'0 0.0
2017-Nov-24 06:29N 45°38' E 013°46'0 0.0
2017-Nov-24 05:59N 45°38' E 013°46'0 0.0
2017-Nov-24 05:23N 45°38' E 013°46'0 0.0
2017-Nov-24 04:47N 45°38' E 013°46'0 0.0
2017-Nov-24 04:29N 45°38' E 013°46'0 0.0
2017-Nov-24 03:59N 45°38' E 013°46'0 0.0
2017-Nov-24 03:29N 45°38' E 013°46'0 0.0
2017-Nov-24 02:59N 45°38' E 013°46'0 0.0
2017-Nov-24 02:29N 45°38' E 013°46'0 0.0
2017-Nov-24 01:59N 45°38' E 013°46'0 0.0
2017-Nov-24 01:29N 45°38' E 013°46'0 0.0
2017-Nov-24 00:59N 45°38' E 013°46'0 0.0
2017-Nov-24 00:29N 45°38' E 013°46'0 0.0
2017-Nov-23 23:59N 45°38' E 013°46'0 0.0
2017-Nov-23 23:29N 45°38' E 013°46'0 0.0
2017-Nov-23 22:59N 45°38' E 013°46'0 0.0
2017-Nov-23 22:29N 45°38' E 013°46'0 0.0
2017-Nov-23 21:59N 45°38' E 013°46'0 0.0
2017-Nov-23 21:29N 45°38' E 013°46'0 0.0
2017-Nov-23 20:59N 45°38' E 013°46'0 0.0
2017-Nov-23 20:23N 45°38' E 013°46'0 0.0
2017-Nov-23 19:59N 45°38' E 013°46'0 0.0
2017-Nov-23 19:29N 45°38' E 013°46'0 0.0
2017-Nov-23 18:59N 45°38' E 013°46'0 0.0
2017-Nov-23 18:29N 45°38' E 013°46'0 0.0
2017-Nov-23 17:56N 45°38' E 013°46'0 0.0
2017-Nov-23 17:23N 45°38' E 013°46'0 0.0
2017-Nov-23 16:56N 45°38' E 013°46'0 0.0
2017-Nov-23 16:26N 45°38' E 013°46'0 0.0
2017-Nov-23 15:56N 45°38' E 013°46'0 0.0
2017-Nov-23 15:26N 45°38' E 013°46'0 0.0
2017-Nov-23 14:59N 45°38' E 013°46'0 0.0
2017-Nov-23 14:20N 45°38' E 013°46'0 0.0
2017-Nov-23 13:53N 45°38' E 013°46'0 0.0
2017-Nov-23 13:29N 45°38' E 013°46'0 0.0
2017-Nov-23 12:53N 45°38' E 013°46'0 0.0
2017-Nov-23 12:29N 45°38' E 013°46'0 0.0
2017-Nov-23 11:59N 45°38' E 013°46'0 0.0
2017-Nov-23 11:26N 45°38' E 013°46'0 0.0
2017-Nov-23 10:59N 45°38' E 013°46'0 0.0
2017-Nov-23 10:26N 45°38' E 013°46'0 0.0
2017-Nov-23 09:50N 45°38' E 013°46'0 0.0
2017-Nov-23 09:29N 45°38' E 013°46'0 0.0
2017-Nov-23 08:41N 45°38' E 013°46'0 0.0
2017-Nov-23 08:29N 45°38' E 013°46'0 0.0
2017-Nov-23 07:59N 45°38' E 013°46'0 0.0
2017-Nov-23 07:29N 45°38' E 013°46'0 0.0
2017-Nov-23 06:59N 45°38' E 013°46'0 0.0
2017-Nov-23 06:29N 45°38' E 013°46'  
Track history (hours):
 
Tides and Currents Weather Stations Pressure Air Temp Water Temp Dewpoint Dewpoint Depression Visibility Wind Speed Wind Dir Waves Ship Positions

Gerd Maersk

Last reported at 2017-Dec-03 05:56 UTC. Time now 2017-Dec-14 10:20 UTC.
Position N 30°40' E 032°20'.
Warning: this ship's position is 11 days out of date.

Length 367 m; draft 15.5 m.

Type: Ship (hazmat cat A). MMSI: 220415000.

Date/timePositionNaut miles runAvg speedWind from/ knotsBaromVisibWave heightAir tempDewpointWater temp
2017-Dec-03 05:56N 30°40' E 032°20'3 8.0
2017-Dec-03 05:30N 30°44' E 032°20'15 8.3
2017-Dec-03 03:40N 30°59' E 032°19'1 8.5
2017-Dec-03 03:30N 31°00' E 032°19'12 1.8
2017-Dec-02 20:39N 31°12' E 032°21'  
2017-Nov-29 16:51N 37°34' E 016°02'3018.3
2017-Nov-29 15:12N 37°53' E 015°31'616.7
2017-Nov-29 14:51N 37°59' E 015°31'617.4
2017-Nov-29 14:30N 38°04' E 015°33'1712.7
2017-Nov-29 13:09N 38°20' E 015°43'210.7
2017-Nov-29 13:01N 38°21' E 015°44'714.5
2017-Nov-29 12:30N 38°26' E 015°51'3 5.2
2017-Nov-29 12:00N 38°27' E 015°54'0 0.0
2017-Nov-28 05:20N 38°27' E 015°54'13 5.4
2017-Nov-28 02:57N 38°18' E 015°42'612.6
2017-Nov-28 02:29N 38°14' E 015°37'5 9.8
2017-Nov-28 02:01N 38°09' E 015°37'5 8.4
2017-Nov-28 01:28N 38°05' E 015°35'4 7.4
2017-Nov-28 00:53N 38°00' E 015°36'512.4
2017-Nov-28 00:28N 37°55' E 015°37'917.6
2017-Nov-27 23:57N 37°51' E 015°47'39714.4
2017-Nov-26 20:17N 44°22' E 014°14'518.8
2017-Nov-26 20:00N 44°27' E 014°11'918.4
2017-Nov-26 19:30N 44°36' E 014°08'1019.0
2017-Nov-26 19:00N 44°45' E 014°09'2919.1
2017-Nov-26 17:29N 45°13' E 014°19'815.4
2017-Nov-26 17:00N 45°18' E 014°27'1 0.0
2017-Nov-25 03:43N 45°19' E 014°26'2 7.8
2017-Nov-25 03:26N 45°18' E 014°24'3 6.3
2017-Nov-25 02:58N 45°16' E 014°21'1910.7
2017-Nov-25 01:11N 44°57' E 014°13'211.8
2017-Nov-25 01:01N 44°55' E 014°12'611.6
2017-Nov-25 00:30N 44°50' E 014°08'611.7
2017-Nov-25 00:01N 44°46' E 014°03'611.2
2017-Nov-24 23:31N 44°42' E 013°57'611.5
2017-Nov-24 23:00N 44°43' E 013°49'611.7
2017-Nov-24 22:30N 44°46' E 013°42'611.7
2017-Nov-24 22:01N 44°51' E 013°37'611.8
2017-Nov-24 21:31N 44°55' E 013°31'611.7
2017-Nov-24 21:00N 44°59' E 013°25'611.5
2017-Nov-24 20:31N 45°02' E 013°18'611.6
2017-Nov-24 20:01N 45°04' E 013°10'611.0
2017-Nov-24 19:30N 45°08' E 013°06'611.7
2017-Nov-24 19:01N 45°14' E 013°03'611.7
2017-Nov-24 18:30N 45°19' E 013°01'4 7.6
2017-Nov-24 18:01N 45°23' E 013°01'0 0.4
2017-Nov-24 17:30N 45°23' E 013°02'0 0.4
2017-Nov-24 17:00N 45°24' E 013°02'1 1.2
2017-Nov-24 16:31N 45°24' E 013°02'1 2.0
2017-Nov-24 16:00N 45°25' E 013°02'3 5.1
2017-Nov-24 15:30N 45°28' E 013°03'510.9
2017-Nov-24 15:01N 45°31' E 013°09'612.0
2017-Nov-24 14:31N 45°33' E 013°17'611.8
2017-Nov-24 14:01N 45°35' E 013°25'611.8
2017-Nov-24 13:31N 45°37' E 013°33'611.3
2017-Nov-24 13:00N 45°39' E 013°40'4 8.0
2017-Nov-24 12:31N 45°38' E 013°45'0 0.7
2017-Nov-24 11:56N 45°38' E 013°46'0 0.0
2017-Nov-24 11:26N 45°38' E 013°46'0 0.0
2017-Nov-24 10:59N 45°38' E 013°46'0 0.0
2017-Nov-24 10:29N 45°38' E 013°46'0 0.0
2017-Nov-24 09:59N 45°38' E 013°46'0 0.0
2017-Nov-24 09:14N 45°38' E 013°46'0 0.0
2017-Nov-24 08:59N 45°38' E 013°46'0 0.0
2017-Nov-24 08:26N 45°38' E 013°46'0 0.0
2017-Nov-24 07:56N 45°38' E 013°46'0 0.0
2017-Nov-24 07:29N 45°38' E 013°46'0 0.0
2017-Nov-24 06:56N 45°38' E 013°46'0 0.0
2017-Nov-24 06:29N 45°38' E 013°46'0 0.0
2017-Nov-24 05:59N 45°38' E 013°46'0 0.0
2017-Nov-24 05:23N 45°38' E 013°46'0 0.0
2017-Nov-24 04:47N 45°38' E 013°46'0 0.0
2017-Nov-24 04:29N 45°38' E 013°46'0 0.0
2017-Nov-24 03:59N 45°38' E 013°46'0 0.0
2017-Nov-24 03:29N 45°38' E 013°46'0 0.0
2017-Nov-24 02:59N 45°38' E 013°46'0 0.0
2017-Nov-24 02:29N 45°38' E 013°46'0 0.0
2017-Nov-24 01:59N 45°38' E 013°46'0 0.0
2017-Nov-24 01:29N 45°38' E 013°46'0 0.0
2017-Nov-24 00:59N 45°38' E 013°46'0 0.0
2017-Nov-24 00:29N 45°38' E 013°46'0 0.0
2017-Nov-23 23:59N 45°38' E 013°46'0 0.0
2017-Nov-23 23:29N 45°38' E 013°46'0 0.0
2017-Nov-23 22:59N 45°38' E 013°46'0 0.0
2017-Nov-23 22:29N 45°38' E 013°46'0 0.0
2017-Nov-23 21:59N 45°38' E 013°46'0 0.0
2017-Nov-23 21:29N 45°38' E 013°46'0 0.0
2017-Nov-23 20:59N 45°38' E 013°46'0 0.0
2017-Nov-23 20:23N 45°38' E 013°46'0 0.0
2017-Nov-23 19:59N 45°38' E 013°46'0 0.0
2017-Nov-23 19:29N 45°38' E 013°46'0 0.0
2017-Nov-23 18:59N 45°38' E 013°46'0 0.0
2017-Nov-23 18:29N 45°38' E 013°46'0 0.0
2017-Nov-23 17:56N 45°38' E 013°46'0 0.0
2017-Nov-23 17:23N 45°38' E 013°46'0 0.0
2017-Nov-23 16:56N 45°38' E 013°46'0 0.0
2017-Nov-23 16:26N 45°38' E 013°46'0 0.0
2017-Nov-23 15:56N 45°38' E 013°46'0 0.0
2017-Nov-23 15:26N 45°38' E 013°46'0 0.0
2017-Nov-23 14:59N 45°38' E 013°46'0 0.0
2017-Nov-23 14:20N 45°38' E 013°46'0 0.0
2017-Nov-23 13:53N 45°38' E 013°46'0 0.0
2017-Nov-23 13:29N 45°38' E 013°46'0 0.0
2017-Nov-23 12:53N 45°38' E 013°46'0 0.0
2017-Nov-23 12:29N 45°38' E 013°46'0 0.0
2017-Nov-23 11:59N 45°38' E 013°46'0 0.0
2017-Nov-23 11:26N 45°38' E 013°46'0 0.0
2017-Nov-23 10:59N 45°38' E 013°46'0 0.0
2017-Nov-23 10:26N 45°38' E 013°46'0 0.0
2017-Nov-23 09:50N 45°38' E 013°46'0 0.0
2017-Nov-23 09:29N 45°38' E 013°46'0 0.0
2017-Nov-23 08:41N 45°38' E 013°46'0 0.0
2017-Nov-23 08:29N 45°38' E 013°46'0 0.0
2017-Nov-23 07:59N 45°38' E 013°46'0 0.0
2017-Nov-23 07:29N 45°38' E 013°46'0 0.0
2017-Nov-23 06:59N 45°38' E 013°46'0 0.0
2017-Nov-23 06:29N 45°38' E 013°46'  

Dump ship's entire track history